Date,TemperatureHighF,TemperatureAvgF,TemperatureLowF,DewpointHighF,DewpointAvgF,DewpointLowF,HumidityHigh,HumidityAvg,HumidityLow,PressureMaxIn,PressureMinIn,WindSpeedMaxMPH,WindSpeedAvgMPH,GustSpeedMaxMPH,PrecipitationSumIn
2013-1-1,52,48,43,48,42,32,90,78,56,30.01,29.82,5,1,5,0.38
2013-1-2,55,51,47,48,45,42,91,81,64,30.75,29.76,7,1,7,0.08
2013-1-3,48,43,31,43,39,27,87,84,77,30.16,29.96,5,1,5,0.00
2013-1-4,55,37,26,34,26,21,86,68,29,30.22,30.09,10,1,10,0.01
2013-1-5,51,37,23,36,25,18,82,65,34,30.26,30.11,6,1,6,0.00
2013-1-6,56,45,32,41,36,26,83,70,54,30.11,29.92,10,2,10,0.01
2013-1-7,59,39,26,33,26,21,85,65,32,30.28,30.08,7,1,7,0.00
2013-1-8,54,41,26,40,32,21,86,70,53,30.32,30.22,6,1,6,0.00
2013-1-9,68,56,49,52,46,39,82,69,55,30.32,30.24,5,0,5,0.00
2013-1-10,73,58,46,53,48,42,87,71,48,30.34,30.20,8,1,8,0.02
2013-1-11,58,54,52,53,50,49,88,87,84,30.20,30.03,8,1,8,0.38
2013-1-12,72,60,52,63,54,48,89,82,62,30.05,29.97,8,1,8,0.01
2013-1-13,72,60,52,61,54,48,88,80,65,30.02,29.93,8,1,8,0.00
2013-1-14,69,63,56,64,59,52,88,85,79,30.00,29.92,7,1,7,0.22
2013-1-15,63,56,47,58,52,12,88,87,84,30.01,29.90,9,1,9,0.18
2013-1-16,53,49,46,50,46,43,90,89,87,29.91,29.83,7,1,7,0.40
2013-1-17,54,50,38,51,46,36,91,89,86,30.08,29.59,14,2,14,2.21
2013-1-18,59,41,30,36,26,17,91,61,22,30.36,30.08,9,1,9,0.00
2013-1-19,59,42,26,34,26,18,86,56,24,30.34,30.11,8,1,8,0.01
2013-1-20,50,50,50,28,28,28,43,43,43,30.11,30.11,0,0,0,0.01
2013-1-21,50,50,50,28,28,28,43,43,43,30.11,30.11,0,0,0,0.01
2013-1-22,50,43,29,28,17,6,65,37,21,30.11,29.92,12,2,12,0.01
2013-1-23,56,39,23,29,20,8,68,49,27,30.15,29.92,14,2,14,0.00
2013-1-24,59,48,30,35,21,0,67,38,21,30.08,29.84,11,5,11,0.00
2013-1-25,33,29,26,26,14,2,78,55,31,30.10,29.72,5,1,5,0.00
2013-1-26,58,37,26,38,28,20,85,71,42,29.93,29.70,4,1,4,0.02
2013-1-27,50,39,29,33,28,25,85,67,45,30.15,29.93,9,1,9,0.00
2013-1-28,53,45,38,42,35,29,86,67,56,30.07,29.89,7,1,7,0.00
2013-1-29,73,54,37,58,47,32,87,76,54,29.89,29.64,7,1,7,0.00
2013-1-30,71,64,48,62,56,44,88,77,65,29.64,29.13,15,4,15,1.06
2013-1-31,51,44,37,44,24,16,83,49,25,30.38,29.26,19,7,19,0.01